createdAt,value
2022-10-11T03:19:48.778Z,99497.94
2022-10-11T03:23:16.681Z,99508.13
2022-10-11T03:26:42.227Z,99507.66
2022-10-11T03:30:07.797Z,99509.44
2022-10-11T03:33:45.049Z,99507.00
2022-10-11T03:37:11.800Z,99509.16
2022-10-11T03:40:45.843Z,99512.81
2022-10-11T03:44:15.320Z,99521.53
2022-10-11T03:47:41.134Z,99519.47
2022-10-11T03:51:06.470Z,99509.16
2022-10-11T03:54:37.540Z,99520.50
2022-10-11T03:58:00.043Z,99517.97
2022-10-11T04:01:25.287Z,99526.94
2022-10-11T04:04:53.574Z,99526.19
2022-10-11T04:08:22.230Z,99536.22
2022-10-11T04:11:55.863Z,99534.78
2022-10-11T04:15:22.911Z,99541.97
2022-10-11T04:18:50.481Z,99547.78
2022-10-11T04:26:03.907Z,99547.47
2022-10-11T04:29:37.783Z,99549.81
2022-10-11T04:33:01.140Z,99548.22
2022-10-11T04:36:23.736Z,99551.56
2022-10-11T04:39:48.635Z,99565.47
2022-10-11T04:43:14.464Z,99567.09
2022-10-11T04:46:41.480Z,99565.16
2022-10-11T04:50:08.700Z,99567.06
2022-10-11T04:53:33.997Z,99573.81
2022-10-11T04:56:56.518Z,99574.78
2022-10-11T06:16:43.024Z,99669.00
2022-10-11T06:24:04.218Z,99677.84
2022-10-11T06:27:29.755Z,99685.38
2022-10-11T06:30:53.498Z,99683.88
2022-10-11T06:34:27.546Z,99697.31
2022-10-11T06:37:53.090Z,99700.78
2022-10-11T06:41:27.439Z,99701.00
2022-10-11T06:44:53.616Z,99705.19
2022-10-11T06:48:24.174Z,99704.84
2022-10-11T06:51:53.524Z,99704.31
2022-10-11T06:55:15.893Z,99708.31
2022-10-11T06:58:40.953Z,99710.97
2022-10-11T07:02:03.431Z,99714.84
2022-10-11T07:05:25.797Z,99722.75
2022-10-11T07:09:05.018Z,99719.56
2022-10-11T07:12:30.248Z,99740.13
2022-10-11T07:15:52.785Z,99730.25
2022-10-11T07:19:19.192Z,99734.22
2022-10-11T07:22:48.273Z,99738.44
2022-10-11T07:26:20.693Z,99743.03
2022-10-11T07:29:42.987Z,99745.25
2022-10-11T07:33:11.111Z,99738.38
2022-10-11T07:36:33.218Z,99745.06
2022-10-11T07:39:54.436Z,99735.06
2022-10-11T07:43:21.392Z,99733.28
2022-10-11T07:46:46.662Z,99735.63
2022-10-11T07:50:12.150Z,99731.66
2022-10-11T07:53:38.176Z,99732.00
2022-10-11T07:57:09.671Z,99738.69
2022-10-11T08:00:39.254Z,99742.59
2022-10-11T08:04:06.122Z,99746.97
2022-10-11T08:07:28.543Z,99749.94
2022-10-11T08:10:51.019Z,99752.53
2022-10-11T08:14:21.590Z,99747.47
2022-10-11T08:17:52.818Z,99748.56
2022-10-11T08:21:25.383Z,99753.53
2022-10-11T08:24:50.394Z,99751.19
2022-10-11T08:28:24.625Z,99752.41
2022-10-11T08:31:51.664Z,99764.19
2022-10-11T08:35:23.249Z,99754.28
2022-10-11T08:38:48.529Z,99752.75
2022-10-11T08:42:20.196Z,99753.09
2022-10-11T08:46:01.435Z,99752.91
2022-10-11T08:49:31.832Z,99750.72
2022-10-11T08:53:08.661Z,99744.75
2022-10-11T08:56:35.156Z,99745.44
2022-10-11T09:00:07.283Z,99741.31
2022-10-11T09:03:44.061Z,99743.03
2022-10-11T09:07:18.293Z,99744.75
2022-10-11T09:11:11.756Z,99741.81
2022-10-11T09:14:59.399Z,99745.84
2022-10-11T09:18:41.487Z,99735.84
2022-10-11T09:22:14.258Z,99733.88
2022-10-11T09:25:42.375Z,99734.31
2022-10-11T09:29:22.682Z,99735.78
2022-10-11T09:32:53.213Z,99718.88
2022-10-11T09:36:30.310Z,99739.59
2022-10-11T09:40:02.618Z,99725.38
2022-10-11T09:43:31.047Z,99720.22
2022-10-11T09:47:06.587Z,99733.88
2022-10-11T09:50:40.427Z,99728.78
2022-10-11T09:54:07.452Z,99712.59
2022-10-11T09:57:40.298Z,99718.69
2022-10-11T10:01:12.599Z,99729.34
2022-10-11T10:04:43.302Z,99721.72
2022-10-11T10:08:20.372Z,99717.25
2022-10-11T10:11:54.254Z,99710.59
2022-10-11T10:15:23.856Z,99711.31
2022-10-11T10:18:53.662Z,99711.50
2022-10-11T10:22:36.747Z,99705.22
2022-10-11T10:26:04.221Z,99705.06
2022-10-11T10:29:31.824Z,99705.03
2022-10-11T10:33:08.709Z,99694.34
2022-10-11T11:33:19.375Z,99677.94
2022-10-11T11:36:40.351Z,99679.31
2022-10-11T11:39:52.573Z,99679.56
2022-10-11T11:43:07.532Z,99666.78
2022-10-11T11:46:21.384Z,99671.66
2022-10-11T11:49:45.750Z,99673.84
2022-10-11T11:52:58.898Z,99671.84
2022-10-11T11:56:26.035Z,99664.31
2022-10-11T11:59:44.370Z,99657.38
2022-10-11T12:02:56.986Z,99653.56
2022-10-11T12:06:22.914Z,99657.34
2022-10-11T12:09:34.600Z,99661.81
2022-10-11T12:12:44.484Z,99653.03
2022-10-11T12:15:59.223Z,99643.53
2022-10-11T12:19:15.247Z,99645.06
2022-10-11T12:22:40.517Z,99642.44
2022-10-11T12:26:18.718Z,99635.47
2022-10-11T12:29:46.558Z,99640.13
2022-10-11T12:33:06.863Z,99632.41
2022-10-11T12:36:34.012Z,99620.13
2022-10-11T12:39:54.619Z,99625.72
2022-10-11T12:43:26.131Z,99623.09
2022-10-11T12:46:42.886Z,99619.50
2022-10-11T12:50:13.351Z,99616.75
2022-10-11T12:53:38.704Z,99613.84
2022-10-11T12:57:08.381Z,99615.13
2022-10-11T13:00:27.836Z,99602.41
2022-10-11T13:03:43.971Z,99611.06
2022-10-11T13:07:02.061Z,99613.03
2022-10-11T13:10:23.802Z,99614.97
2022-10-11T13:13:39.718Z,99607.50
2022-10-11T13:16:57.447Z,99607.09
2022-10-11T13:20:18.486Z,99607.28
2022-10-11T13:23:30.164Z,99605.25
2022-10-11T13:26:40.023Z,99606.66
2022-10-11T13:29:56.508Z,99604.75
2022-10-11T13:33:15.027Z,99615.91
2022-10-11T13:36:27.710Z,99612.59
2022-10-11T13:39:39.363Z,99607.91
2022-10-11T13:42:54.624Z,99604.84
2022-10-11T13:46:17.689Z,99599.50
2022-10-11T13:49:37.135Z,99598.50
2022-10-11T13:52:53.471Z,99593.75
2022-10-11T13:56:08.888Z,99597.81
2022-10-11T13:59:20.821Z,99601.19
2022-10-11T14:02:33.580Z,99601.19
2022-10-11T14:05:45.300Z,99593.09
2022-10-11T14:08:58.456Z,99593.47
2022-10-11T14:12:31.290Z,99584.06
2022-10-11T14:15:41.003Z,99592.53
2022-10-11T14:19:09.820Z,99581.75
2022-10-11T14:22:21.962Z,99586.16
2022-10-11T14:25:34.353Z,99584.34
2022-10-11T14:28:44.346Z,99588.06
2022-10-11T14:31:57.648Z,99592.34
2022-10-11T14:35:18.943Z,99586.53
2022-10-11T14:38:28.624Z,99584.72
2022-10-11T14:41:45.443Z,99581.13
2022-10-11T14:44:55.343Z,99585.91
2022-10-11T14:48:05.744Z,99582.03
2022-10-11T14:51:21.690Z,99579.53
2022-10-11T14:54:33.040Z,99583.38
2022-10-11T14:57:48.675Z,99589.88
2022-10-11T15:00:58.308Z,99583.94
2022-10-11T15:04:07.986Z,99584.50
2022-10-11T15:07:23.929Z,99585.19
2022-10-11T15:10:39.484Z,99584.06
2022-10-11T15:13:49.881Z,99579.66
2022-10-11T15:17:01.911Z,99582.41
2022-10-11T15:20:19.732Z,99584.69
2022-10-11T15:23:33.049Z,99582.69
2022-10-11T15:26:43.942Z,99577.50
2022-10-11T15:29:53.629Z,99577.50
2022-10-11T15:33:03.584Z,99576.63
2022-10-11T15:36:15.379Z,99569.53
2022-10-11T15:39:31.423Z,99574.94
2022-10-11T15:42:41.368Z,99582.72
2022-10-11T15:45:51.074Z,99573.44
2022-10-11T15:49:05.883Z,99577.56
2022-10-11T15:52:16.369Z,99580.03
2022-10-11T15:55:27.417Z,99585.19
2022-10-11T15:58:38.458Z,99594.19
2022-10-11T16:01:50.247Z,99577.31
2022-10-11T16:04:59.912Z,99580.44
2022-10-11T16:08:10.752Z,99580.91
2022-10-11T16:11:21.657Z,99586.47
2022-10-11T16:14:37.474Z,99588.47
2022-10-11T16:17:47.132Z,99588.97
2022-10-11T16:20:56.801Z,99594.09
2022-10-11T16:24:06.590Z,99600.03
2022-10-11T16:27:18.953Z,99592.47
2022-10-11T16:30:29.148Z,99589.84
2022-10-11T16:33:45.928Z,99591.47
2022-10-11T16:36:55.981Z,99596.19
2022-10-11T16:40:06.586Z,99607.59
2022-10-11T16:43:20.443Z,99607.66
2022-10-11T16:46:30.244Z,99604.38
2022-10-11T16:49:40.065Z,99604.91
2022-10-11T16:52:52.384Z,99612.63
2022-10-11T16:56:07.512Z,99611.31
2022-10-11T16:59:23.171Z,99616.19
2022-10-11T17:02:34.399Z,99613.50
2022-10-11T17:05:45.530Z,99616.44
2022-10-11T17:08:56.963Z,99617.97
2022-10-11T17:12:17.691Z,99613.81
2022-10-11T17:15:42.517Z,99619.19
2022-10-11T17:18:54.220Z,99625.06
2022-10-11T17:22:09.902Z,99617.44
2022-10-11T17:25:23.548Z,99613.72
2022-10-11T17:28:35.677Z,99620.78
2022-10-11T17:31:53.132Z,99619.19
2022-10-11T17:35:05.889Z,99619.78
2022-10-11T17:38:21.305Z,99612.09
2022-10-11T17:41:33.145Z,99621.84
2022-10-11T17:44:46.508Z,99616.53
2022-10-11T17:48:11.774Z,99624.28
2022-10-11T17:51:26.047Z,99618.72
2022-10-11T17:54:44.490Z,99615.63
2022-10-11T17:58:00.207Z,99624.53
2022-10-11T18:01:14.642Z,99628.81
2022-10-11T18:04:30.185Z,99626.34
2022-10-11T18:07:55.579Z,99631.16
2022-10-11T18:11:12.675Z,99634.69
2022-10-11T18:14:28.270Z,99640.28
2022-10-11T18:17:42.920Z,99635.34
2022-10-11T18:20:56.170Z,99636.16
2022-10-11T18:24:12.026Z,99637.56
2022-10-11T18:27:28.433Z,99643.50
2022-10-11T18:30:44.814Z,99649.41
2022-10-11T18:33:56.711Z,99651.53
2022-10-11T18:37:13.115Z,99643.72
2022-10-11T18:40:24.679Z,99638.00
2022-10-11T18:43:36.826Z,99647.09
2022-10-11T18:46:48.785Z,99646.66
2022-10-11T18:50:00.082Z,99651.94
2022-10-11T18:53:19.758Z,99651.59
2022-10-11T18:56:32.158Z,99649.63
2022-10-11T18:59:44.750Z,99656.72
2022-10-11T19:02:56.051Z,99650.84
2022-10-11T19:06:09.771Z,99655.34
2022-10-11T19:09:27.020Z,99656.84
2022-10-11T19:12:41.345Z,99658.81
2022-10-11T19:15:55.550Z,99645.56
2022-10-11T19:19:07.124Z,99655.16
2022-10-11T19:22:18.802Z,99659.19
2022-10-11T19:25:31.552Z,99661.09
2022-10-11T19:28:44.003Z,99659.75
2022-10-11T19:31:57.341Z,99656.13
2022-10-11T19:35:19.667Z,99656.22
2022-10-11T19:38:33.594Z,99654.72
2022-10-11T19:41:51.781Z,99653.31
2022-10-11T19:45:03.254Z,99645.66
2022-10-11T19:48:17.510Z,99648.50
2022-10-11T19:51:30.935Z,99656.00
2022-10-11T19:54:42.201Z,99651.34
2022-10-11T19:57:54.854Z,99657.28
2022-10-11T20:01:08.099Z,99655.16
2022-10-11T20:04:39.979Z,99651.72
2022-10-11T20:07:50.745Z,99661.75
2022-10-11T20:11:03.411Z,99660.56
2022-10-11T20:14:19.400Z,99663.22
